Time;durP1;ratioP1;P1;durP2;ratioP2;P2;SDS_P1;SDS_P2;PMS_P1;PMS_P2;Temp;Humidity;BMP_temperature;BMP_pressure;BME280_temperature;BME280_humidity;BME280_pressure;Samples;Min_cycle;Max_cycle;Signal;HPM_P1;HPM_P2
2022/02/16 00:01:19;;;;;;;;;;;8.80;99.90;;;;;;5045048;28;19939;-74
2022/02/16 00:03:45;;;;;;;;;;;8.90;99.90;;;;;;5030118;28;19926;-74
2022/02/16 00:06:12;;;;;;;;;;;8.90;99.90;;;;;;5028176;28;19947;-75
2022/02/16 00:08:39;;;;;;;;;;;8.90;99.90;;;;;;5031457;28;19929;-74
2022/02/16 00:11:05;;;;;;;;;;;8.90;99.90;;;;;;5025747;28;19925;-74
2022/02/16 00:13:32;;;;;;;;;;;8.90;99.90;;;;;;5033022;28;20679;-74
2022/02/16 00:16:00;;;;;;;;;;;8.90;99.90;;;;;;5031608;28;20083;-75
2022/02/16 00:18:27;;;;;;;;;;;8.90;99.90;;;;;;5043073;28;19925;-74
2022/02/16 00:20:53;;;;;;;;;;;8.90;99.90;;;;;;5033646;28;19935;-74
2022/02/16 00:23:21;;;;;;;;;;;8.90;99.90;;;;;;5031280;28;19932;-73
2022/02/16 00:25:48;;;;;;;;;;;8.90;99.90;;;;;;5029541;28;19979;-74
2022/02/16 00:28:17;;;;;;;;;;;8.90;99.90;;;;;;5034913;28;20012;-73
2022/02/16 00:30:44;;;;;;;;;;;8.90;99.90;;;;;;5030597;28;19925;-74
2022/02/16 00:33:12;;;;;;;;;;;8.90;99.90;;;;;;5029569;28;19925;-74
2022/02/16 00:35:39;;;;;;;;;;;8.80;99.90;;;;;;5019937;28;19925;-73
2022/02/16 00:38:09;;;;;;;;;;;8.90;99.90;;;;;;5034163;28;20276;-75
2022/02/16 00:40:35;;;;;;;;;;;8.90;99.90;;;;;;5029002;28;19925;-75
2022/02/16 00:43:02;;;;;;;;;;;8.90;99.90;;;;;;5016885;28;19925;-73
2022/02/16 00:45:31;;;;;;;;;;;8.90;99.90;;;;;;5027607;28;20384;-73
2022/02/16 00:47:57;;;;;;;;;;;8.80;99.90;;;;;;5031045;28;20027;-74
2022/02/16 00:50:26;;;;;;;;;;;8.80;99.90;;;;;;5029951;28;20399;-74
2022/02/16 00:52:52;;;;;;;;;;;8.80;99.90;;;;;;5041639;28;20303;-74
2022/02/16 00:55:19;;;;;;;;;;;8.80;99.90;;;;;;5029234;28;20495;-73
2022/02/16 00:57:45;;;;;;;;;;;8.80;99.90;;;;;;5037331;28;19925;-74
2022/02/16 01:00:13;;;;;;;;;;;8.80;99.90;;;;;;5034477;28;19925;-73
2022/02/16 01:02:40;;;;;;;;;;;8.80;99.90;;;;;;5024610;28;19925;-74
2022/02/16 01:05:07;;;;;;;;;;;8.80;99.90;;;;;;5022588;28;19925;-73
2022/02/16 01:07:35;;;;;;;;;;;8.90;99.90;;;;;;5028351;28;19925;-73
2022/02/16 01:10:03;;;;;;;;;;;8.90;99.90;;;;;;5045767;28;20019;-74
2022/02/16 01:12:30;;;;;;;;;;;8.80;99.90;;;;;;5033799;28;19925;-73
2022/02/16 01:14:56;;;;;;;;;;;8.80;99.90;;;;;;5030466;28;20019;-74
2022/02/16 01:17:23;;;;;;;;;;;8.80;99.90;;;;;;5029937;28;19925;-74
2022/02/16 01:19:50;;;;;;;;;;;8.90;99.90;;;;;;5030945;28;19926;-74
2022/02/16 01:22:17;;;;;;;;;;;8.80;99.90;;;;;;5027602;28;19925;-75
2022/02/16 01:24:45;;;;;;;;;;;8.80;99.90;;;;;;5018992;28;19931;-72
2022/02/16 01:27:11;;;;;;;;;;;8.80;99.90;;;;;;5026221;28;19943;-74
2022/02/16 01:29:38;;;;;;;;;;;8.80;99.90;;;;;;5033690;28;19929;-74
2022/02/16 01:32:05;;;;;;;;;;;8.80;99.90;;;;;;5030722;28;20360;-73
2022/02/16 01:34:31;;;;;;;;;;;8.80;99.90;;;;;;5033120;28;19925;-73
2022/02/16 01:36:58;;;;;;;;;;;8.80;99.90;;;;;;5027829;28;19925;-74
2022/02/16 01:39:25;;;;;;;;;;;8.80;99.90;;;;;;5031420;28;20015;-73
2022/02/16 01:41:55;;;;;;;;;;;8.80;99.90;;;;;;5032756;28;19925;-74
2022/02/16 01:44:22;;;;;;;;;;;8.80;99.90;;;;;;5029769;28;19932;-74
2022/02/16 01:46:49;;;;;;;;;;;8.80;99.90;;;;;;5025089;28;19932;-73
2022/02/16 01:49:16;;;;;;;;;;;8.80;99.90;;;;;;5028681;28;19972;-74
2022/02/16 01:51:44;;;;;;;;;;;8.80;99.90;;;;;;5035831;28;19932;-74
2022/02/16 01:54:11;;;;;;;;;;;8.80;99.90;;;;;;5029493;28;20269;-73
2022/02/16 01:56:38;;;;;;;;;;;8.80;99.90;;;;;;5027299;28;19925;-74
2022/02/16 01:59:07;;;;;;;;;;;8.90;99.90;;;;;;5024846;28;19925;-74
2022/02/16 02:01:34;;;;;;;;;;;8.80;99.90;;;;;;5028713;28;20024;-74
2022/02/16 02:04:01;;;;;;;;;;;8.90;99.90;;;;;;5030813;28;19932;-74
2022/02/16 02:06:28;;;;;;;;;;;8.90;99.90;;;;;;5027584;28;19925;-73
2022/02/16 02:08:54;;;;;;;;;;;8.90;99.90;;;;;;5030121;28;19932;-75
2022/02/16 02:11:21;;;;;;;;;;;8.90;99.90;;;;;;5029090;28;19925;-73
2022/02/16 02:13:55;;;;;;;;;;;8.90;99.90;;;;;;5028143;28;19932;-73
2022/02/16 02:16:23;;;;;;;;;;;8.90;99.90;;;;;;5025113;28;19925;-73
2022/02/16 02:18:49;;;;;;;;;;;8.90;99.90;;;;;;5028023;28;19932;-73
2022/02/16 02:21:17;;;;;;;;;;;8.90;99.90;;;;;;5028751;28;19925;-74
2022/02/16 02:23:44;;;;;;;;;;;8.90;99.90;;;;;;5030802;28;19931;-74
2022/02/16 02:26:11;;;;;;;;;;;8.90;99.90;;;;;;5032914;28;19925;-73
2022/02/16 02:28:38;;;;;;;;;;;8.90;99.90;;;;;;5034611;28;20296;-73
2022/02/16 02:31:05;;;;;;;;;;;8.90;99.90;;;;;;5035719;28;19930;-73
2022/02/16 02:33:31;;;;;;;;;;;8.90;99.90;;;;;;5033062;28;19932;-73
2022/02/16 02:35:58;;;;;;;;;;;8.90;99.90;;;;;;5030127;28;20594;-73
2022/02/16 02:38:26;;;;;;;;;;;8.90;99.90;;;;;;5030888;28;20396;-74
2022/02/16 02:40:53;;;;;;;;;;;8.90;99.90;;;;;;5031650;28;19925;-74
2022/02/16 02:43:20;;;;;;;;;;;8.90;99.90;;;;;;5042232;28;19929;-74
2022/02/16 02:45:47;;;;;;;;;;;8.90;99.90;;;;;;5031918;28;19925;-74
2022/02/16 02:48:14;;;;;;;;;;;8.90;99.90;;;;;;5034748;28;19925;-74
2022/02/16 02:50:41;;;;;;;;;;;9.00;99.90;;;;;;5032342;28;20020;-73
2022/02/16 02:53:07;;;;;;;;;;;8.90;99.90;;;;;;5034609;28;19925;-75
2022/02/16 02:55:35;;;;;;;;;;;9.00;99.90;;;;;;5033311;28;19925;-73
2022/02/16 02:58:02;;;;;;;;;;;9.00;99.90;;;;;;5033900;28;19925;-75
2022/02/16 03:00:29;;;;;;;;;;;8.90;99.90;;;;;;5035067;28;20344;-74
2022/02/16 03:02:55;;;;;;;;;;;8.90;99.90;;;;;;5032966;28;20027;-75
2022/02/16 03:05:22;;;;;;;;;;;9.00;99.90;;;;;;5033358;28;20299;-74
2022/02/16 03:07:48;;;;;;;;;;;8.90;99.90;;;;;;5026315;28;20016;-75
2022/02/16 03:10:15;;;;;;;;;;;9.00;99.90;;;;;;5040401;28;19931;-74
2022/02/16 03:12:43;;;;;;;;;;;9.00;99.90;;;;;;5033833;28;19976;-75
2022/02/16 03:15:10;;;;;;;;;;;9.00;99.90;;;;;;5034915;28;19925;-72
2022/02/16 03:17:37;;;;;;;;;;;9.00;99.90;;;;;;5030381;28;20316;-72
2022/02/16 03:20:05;;;;;;;;;;;9.00;99.90;;;;;;5027537;28;20165;-72
2022/02/16 03:22:32;;;;;;;;;;;9.00;99.90;;;;;;5031937;28;19960;-72
2022/02/16 03:24:59;;;;;;;;;;;9.00;99.90;;;;;;5032481;28;19933;-72
2022/02/16 03:27:26;;;;;;;;;;;9.00;99.90;;;;;;5030068;28;19994;-72
2022/02/16 03:29:54;;;;;;;;;;;9.00;99.90;;;;;;5035617;28;20422;-72
2022/02/16 03:32:21;;;;;;;;;;;9.00;99.90;;;;;;5030552;28;19925;-74
2022/02/16 03:34:48;;;;;;;;;;;8.90;99.90;;;;;;5023358;28;20024;-74
2022/02/16 03:37:14;;;;;;;;;;;8.90;99.90;;;;;;5030373;28;19925;-74
2022/02/16 03:39:41;;;;;;;;;;;8.90;99.90;;;;;;5032105;28;19931;-73
2022/02/16 03:42:08;;;;;;;;;;;8.90;99.90;;;;;;5039226;28;19925;-74
2022/02/16 03:44:35;;;;;;;;;;;8.90;99.90;;;;;;5032631;28;19960;-74
2022/02/16 03:47:03;;;;;;;;;;;8.90;99.90;;;;;;5029429;28;20020;-74
2022/02/16 03:49:30;;;;;;;;;;;9.00;99.90;;;;;;5029982;28;19925;-73
2022/02/16 03:51:56;;;;;;;;;;;9.10;99.90;;;;;;5030822;28;19935;-75
2022/02/16 03:54:23;;;;;;;;;;;9.10;99.90;;;;;;5037673;28;19924;-73
2022/02/16 03:56:51;;;;;;;;;;;9.10;99.90;;;;;;5031436;28;19925;-74
2022/02/16 03:59:17;;;;;;;;;;;9.10;99.90;;;;;;5031472;28;20018;-74
2022/02/16 04:01:44;;;;;;;;;;;9.20;99.90;;;;;;5031622;28;19925;-72
2022/02/16 04:04:13;;;;;;;;;;;9.20;99.90;;;;;;5019945;28;19932;-73
2022/02/16 04:06:39;;;;;;;;;;;9.20;99.90;;;;;;5020874;28;19925;-73
2022/02/16 04:09:07;;;;;;;;;;;9.20;99.90;;;;;;5033008;28;19932;-73
2022/02/16 04:11:33;;;;;;;;;;;9.20;99.90;;;;;;5029897;28;20295;-73
2022/02/16 04:14:00;;;;;;;;;;;9.20;99.90;;;;;;5031716;28;19929;-73
2022/02/16 04:16:27;;;;;;;;;;;9.20;99.90;;;;;;5034181;28;19925;-73
2022/02/16 04:18:54;;;;;;;;;;;9.20;99.90;;;;;;5032544;28;19925;-72
2022/02/16 04:21:22;;;;;;;;;;;9.20;99.90;;;;;;5030456;28;19931;-74
2022/02/16 04:23:48;;;;;;;;;;;9.20;99.90;;;;;;5028495;28;19925;-73
2022/02/16 04:26:15;;;;;;;;;;;9.20;99.90;;;;;;5030374;28;19924;-73
2022/02/16 04:28:42;;;;;;;;;;;9.20;99.90;;;;;;5026905;28;19929;-73
2022/02/16 04:31:08;;;;;;;;;;;9.20;99.90;;;;;;5030506;28;19932;-73
2022/02/16 04:33:35;;;;;;;;;;;9.20;99.90;;;;;;5028240;28;19925;-73
2022/02/16 04:36:02;;;;;;;;;;;9.30;99.90;;;;;;5029031;28;20063;-73
2022/02/16 04:38:30;;;;;;;;;;;9.30;99.90;;;;;;5029197;28;19980;-73
2022/02/16 04:40:56;;;;;;;;;;;9.30;99.90;;;;;;5045195;28;20281;-73
2022/02/16 04:43:23;;;;;;;;;;;9.30;99.90;;;;;;5030321;28;19929;-73
2022/02/16 04:45:49;;;;;;;;;;;9.30;99.90;;;;;;5030600;28;19931;-73
2022/02/16 04:48:17;;;;;;;;;;;9.30;99.90;;;;;;5028325;28;20411;-74
2022/02/16 04:50:44;;;;;;;;;;;9.30;99.90;;;;;;5027304;28;19929;-73
2022/02/16 04:53:10;;;;;;;;;;;9.30;99.90;;;;;;5030018;28;19932;-74
2022/02/16 04:55:38;;;;;;;;;;;9.30;99.90;;;;;;5032209;28;20380;-73
2022/02/16 04:58:05;;;;;;;;;;;9.30;99.90;;;;;;5032007;28;20032;-74
2022/02/16 05:00:32;;;;;;;;;;;9.30;99.90;;;;;;5031093;28;19929;-73
2022/02/16 05:02:59;;;;;;;;;;;9.30;99.90;;;;;;5029326;28;20372;-73
2022/02/16 05:05:25;;;;;;;;;;;9.30;99.90;;;;;;5028524;28;19933;-72
2022/02/16 05:07:52;;;;;;;;;;;9.20;99.90;;;;;;5039237;28;20024;-73
2022/02/16 05:10:18;;;;;;;;;;;9.30;99.90;;;;;;5030167;28;19931;-73
2022/02/16 05:12:46;;;;;;;;;;;9.30;99.90;;;;;;5031173;28;20012;-73
2022/02/16 05:15:13;;;;;;;;;;;9.30;99.90;;;;;;5028078;28;20722;-73
2022/02/16 05:17:40;;;;;;;;;;;9.30;99.90;;;;;;5029769;28;19925;-72
2022/02/16 05:20:07;;;;;;;;;;;9.30;99.90;;;;;;5046182;28;19931;-72
2022/02/16 05:22:34;;;;;;;;;;;9.30;99.90;;;;;;5025155;28;19931;-73
2022/02/16 05:25:01;;;;;;;;;;;9.30;99.90;;;;;;5030228;28;19965;-73
2022/02/16 05:27:28;;;;;;;;;;;9.30;99.90;;;;;;5029907;28;19931;-73
2022/02/16 05:29:56;;;;;;;;;;;9.30;99.90;;;;;;5029600;28;20295;-73
2022/02/16 05:32:23;;;;;;;;;;;9.40;99.90;;;;;;5025379;28;19925;-72
2022/02/16 05:34:49;;;;;;;;;;;9.40;99.90;;;;;;5036382;28;19925;-73
2022/02/16 05:37:16;;;;;;;;;;;9.40;99.90;;;;;;5025663;28;19929;-73
2022/02/16 05:39:43;;;;;;;;;;;9.40;99.90;;;;;;5029656;28;19933;-73
2022/02/16 05:42:09;;;;;;;;;;;9.40;99.90;;;;;;5028326;28;19924;-72
2022/02/16 05:44:36;;;;;;;;;;;9.40;99.90;;;;;;5030012;28;20083;-72
2022/02/16 05:47:05;;;;;;;;;;;9.40;99.90;;;;;;5032015;28;19925;-72
2022/02/16 05:49:31;;;;;;;;;;;9.40;99.90;;;;;;5030056;28;19925;-72
2022/02/16 05:51:58;;;;;;;;;;;9.40;99.90;;;;;;5035823;28;19929;-73
2022/02/16 05:54:25;;;;;;;;;;;9.40;99.90;;;;;;5040304;28;19925;-73
2022/02/16 05:56:51;;;;;;;;;;;9.40;99.90;;;;;;5030697;28;19925;-73
2022/02/16 05:59:18;;;;;;;;;;;9.40;99.90;;;;;;5044573;28;19924;-72
2022/02/16 06:01:45;;;;;;;;;;;9.40;99.90;;;;;;5030086;28;20316;-72
2022/02/16 06:04:16;;;;;;;;;;;9.50;99.90;;;;;;5043781;28;19925;-71
2022/02/16 06:06:42;;;;;;;;;;;9.50;99.90;;;;;;5045522;28;19929;-72
2022/02/16 06:09:12;;;;;;;;;;;9.50;99.90;;;;;;5050855;28;20031;-73
2022/02/16 06:11:39;;;;;;;;;;;9.60;99.90;;;;;;5041474;28;19979;-74
2022/02/16 06:14:07;;;;;;;;;;;9.60;99.90;;;;;;5044286;28;20352;-72
2022/02/16 06:16:33;;;;;;;;;;;9.70;99.90;;;;;;5037261;28;19968;-72
2022/02/16 06:19:00;;;;;;;;;;;9.70;99.90;;;;;;5044032;28;19964;-72
2022/02/16 06:21:28;;;;;;;;;;;9.70;99.90;;;;;;5036839;28;19925;-72
2022/02/16 06:23:55;;;;;;;;;;;9.80;99.90;;;;;;5030217;28;19925;-73
2022/02/16 06:26:21;;;;;;;;;;;9.80;99.90;;;;;;5036844;28;19979;-72
2022/02/16 06:28:48;;;;;;;;;;;9.80;99.90;;;;;;5026631;28;19979;-71
2022/02/16 06:31:14;;;;;;;;;;;9.80;99.90;;;;;;5035165;28;19925;-71
2022/02/16 06:33:41;;;;;;;;;;;9.90;99.90;;;;;;5027518;28;19995;-72
2022/02/16 06:36:08;;;;;;;;;;;9.90;99.90;;;;;;5026031;28;19925;-72
2022/02/16 06:38:36;;;;;;;;;;;9.90;99.90;;;;;;5036866;28;20033;-72
2022/02/16 06:41:04;;;;;;;;;;;10.00;99.90;;;;;;5022627;28;19933;-72
2022/02/16 06:43:30;;;;;;;;;;;10.00;99.90;;;;;;5022683;28;19932;-72
2022/02/16 06:46:01;;;;;;;;;;;9.90;99.90;;;;;;5042349;28;20048;-74
2022/02/16 06:48:27;;;;;;;;;;;9.90;99.90;;;;;;5033397;28;19935;-73
2022/02/16 06:50:54;;;;;;;;;;;9.90;99.90;;;;;;5025813;28;19970;-72
2022/02/16 06:53:21;;;;;;;;;;;9.90;99.90;;;;;;5044603;28;19924;-73
2022/02/16 06:55:50;;;;;;;;;;;10.00;99.90;;;;;;5027368;28;19935;-72
2022/02/16 06:58:19;;;;;;;;;;;10.00;99.90;;;;;;5035520;28;19932;-73
2022/02/16 07:00:46;;;;;;;;;;;10.00;99.90;;;;;;5037405;28;19925;-73
2022/02/16 07:03:13;;;;;;;;;;;10.00;99.90;;;;;;5031445;28;19997;-72
2022/02/16 07:05:48;;;;;;;;;;;10.00;99.90;;;;;;5022220;28;19932;-73
2022/02/16 07:08:14;;;;;;;;;;;10.10;99.90;;;;;;5033905;28;19925;-73
2022/02/16 07:10:41;;;;;;;;;;;10.20;99.90;;;;;;5030680;28;19933;-70
2022/02/16 07:13:09;;;;;;;;;;;10.20;99.90;;;;;;5041150;28;20244;-71
2022/02/16 07:15:35;;;;;;;;;;;10.20;99.90;;;;;;5031337;28;19929;-72
2022/02/16 07:18:02;;;;;;;;;;;10.20;99.90;;;;;;5032542;28;20374;-72
2022/02/16 07:20:29;;;;;;;;;;;10.20;99.90;;;;;;5030282;28;19929;-72
2022/02/16 07:22:56;;;;;;;;;;;10.20;99.90;;;;;;5031015;28;19925;-72
2022/02/16 07:25:24;;;;;;;;;;;10.20;99.90;;;;;;5035382;28;20380;-72
2022/02/16 07:27:51;;;;;;;;;;;10.30;99.90;;;;;;5034436;28;19936;-73
2022/02/16 07:30:19;;;;;;;;;;;10.30;99.90;;;;;;5033672;28;19924;-72
2022/02/16 07:32:47;;;;;;;;;;;10.30;99.90;;;;;;5033569;28;19929;-73
2022/02/16 07:35:14;;;;;;;;;;;10.30;99.90;;;;;;5032392;28;19925;-72
2022/02/16 07:37:40;;;;;;;;;;;10.30;99.90;;;;;;5032907;28;19925;-73
2022/02/16 07:40:08;;;;;;;;;;;10.30;99.90;;;;;;5038998;28;20289;-72
2022/02/16 07:42:34;;;;;;;;;;;10.30;99.90;;;;;;5028691;28;19978;-71
2022/02/16 07:45:02;;;;;;;;;;;10.30;99.90;;;;;;5017673;28;19944;-71
2022/02/16 07:47:31;;;;;;;;;;;10.40;99.90;;;;;;5047943;28;19925;-73
2022/02/16 07:49:58;;;;;;;;;;;10.40;99.90;;;;;;5043386;28;19992;-71
2022/02/16 07:52:27;;;;;;;;;;;10.40;99.90;;;;;;5031658;28;20004;-71
2022/02/16 07:54:55;;;;;;;;;;;10.40;99.90;;;;;;5026730;28;19926;-73
2022/02/16 07:57:21;;;;;;;;;;;10.40;99.90;;;;;;5031794;28;20015;-71
2022/02/16 07:59:51;;;;;;;;;;;10.40;99.90;;;;;;5045080;28;19925;-71
2022/02/16 08:02:17;;;;;;;;;;;10.40;99.90;;;;;;5034005;28;19925;-71
2022/02/16 08:04:45;;;;;;;;;;;10.40;99.90;;;;;;5036953;28;19984;-71
2022/02/16 08:07:12;;;;;;;;;;;10.50;99.90;;;;;;5033426;28;19926;-72
2022/02/16 08:09:38;;;;;;;;;;;10.50;99.90;;;;;;5043470;28;19928;-71
2022/02/16 08:12:05;;;;;;;;;;;10.50;99.90;;;;;;5033273;28;20288;-72
2022/02/16 08:14:33;;;;;;;;;;;10.50;99.90;;;;;;5030765;28;19925;-72
2022/02/16 08:17:00;;;;;;;;;;;10.60;99.90;;;;;;5034136;28;19925;-74
2022/02/16 08:19:27;;;;;;;;;;;10.60;99.90;;;;;;5031714;28;20020;-71
2022/02/16 08:21:57;;;;;;;;;;;10.60;99.90;;;;;;5025627;28;20472;-71
2022/02/16 08:24:25;;;;;;;;;;;10.60;99.90;;;;;;5039901;28;19932;-74
2022/02/16 08:26:51;;;;;;;;;;;10.60;99.90;;;;;;5039667;28;19971;-71
2022/02/16 08:29:19;;;;;;;;;;;10.60;99.90;;;;;;5030331;28;19925;-71
2022/02/16 08:31:46;;;;;;;;;;;10.60;99.90;;;;;;5033160;28;19969;-70
2022/02/16 08:34:13;;;;;;;;;;;10.60;99.90;;;;;;5032623;28;20269;-70
2022/02/16 08:36:40;;;;;;;;;;;10.60;99.90;;;;;;5034370;28;19931;-71
2022/02/16 08:39:08;;;;;;;;;;;10.60;99.90;;;;;;5048870;28;19933;-71
2022/02/16 08:41:34;;;;;;;;;;;10.70;99.90;;;;;;5029247;28;19931;-70
2022/02/16 08:44:01;;;;;;;;;;;10.70;99.90;;;;;;5027538;28;19979;-71
2022/02/16 08:46:28;;;;;;;;;;;10.70;99.90;;;;;;5027561;28;19948;-72
2022/02/16 08:48:55;;;;;;;;;;;10.70;99.90;;;;;;5034501;28;20405;-70
2022/02/16 08:51:22;;;;;;;;;;;10.70;99.90;;;;;;5044502;28;19924;-72
2022/02/16 08:53:49;;;;;;;;;;;10.70;99.90;;;;;;5036116;28;19971;-72
2022/02/16 08:56:17;;;;;;;;;;;10.70;99.90;;;;;;5038231;28;19955;-72
2022/02/16 08:58:43;;;;;;;;;;;10.80;99.90;;;;;;5035995;28;20191;-71
2022/02/16 09:01:11;;;;;;;;;;;10.80;99.90;;;;;;5039054;28;19951;-71
2022/02/16 09:03:38;;;;;;;;;;;10.80;99.90;;;;;;5024244;28;19931;-71
2022/02/16 09:06:04;;;;;;;;;;;10.80;99.90;;;;;;5040151;28;20426;-73
2022/02/16 09:08:31;;;;;;;;;;;10.90;99.90;;;;;;5031068;28;19925;-71
2022/02/16 09:10:58;;;;;;;;;;;10.90;99.90;;;;;;5044313;28;19933;-73
2022/02/16 09:13:26;;;;;;;;;;;10.90;99.90;;;;;;5031542;28;19925;-73
2022/02/16 09:15:53;;;;;;;;;;;11.00;99.90;;;;;;5029328;28;19931;-71
2022/02/16 09:18:19;;;;;;;;;;;11.00;99.90;;;;;;5030134;28;19931;-73
2022/02/16 09:20:48;;;;;;;;;;;11.10;99.90;;;;;;5031752;28;20140;-71
2022/02/16 09:23:14;;;;;;;;;;;11.10;99.90;;;;;;5035420;28;19929;-72
2022/02/16 09:25:41;;;;;;;;;;;11.20;99.90;;;;;;5030798;28;19971;-71
2022/02/16 09:28:08;;;;;;;;;;;11.20;99.90;;;;;;5033630;28;19941;-71
2022/02/16 09:30:36;;;;;;;;;;;11.20;99.90;;;;;;5028833;28;19932;-72
2022/02/16 09:33:03;;;;;;;;;;;11.20;99.90;;;;;;5033028;28;20016;-72
2022/02/16 09:35:30;;;;;;;;;;;11.30;99.90;;;;;;5030171;28;19932;-72
2022/02/16 09:37:56;;;;;;;;;;;11.30;99.90;;;;;;5033710;28;19936;-72
2022/02/16 09:40:23;;;;;;;;;;;11.40;99.90;;;;;;5045064;28;19979;-70
2022/02/16 09:42:50;;;;;;;;;;;11.40;99.90;;;;;;5035735;28;19925;-71
2022/02/16 09:45:17;;;;;;;;;;;11.50;99.90;;;;;;5031878;28;20357;-73
2022/02/16 09:47:46;;;;;;;;;;;11.50;99.90;;;;;;5035408;28;20273;-74
2022/02/16 09:50:14;;;;;;;;;;;11.50;99.90;;;;;;5025584;28;20460;-70
2022/02/16 09:52:41;;;;;;;;;;;11.50;99.90;;;;;;5040206;28;20389;-70
2022/02/16 09:55:08;;;;;;;;;;;11.50;99.90;;;;;;5044394;28;19932;-70
2022/02/16 09:57:35;;;;;;;;;;;11.50;99.90;;;;;;5028497;28;20404;-71
2022/02/16 10:00:01;;;;;;;;;;;11.60;99.90;;;;;;5027447;28;19931;-71
2022/02/16 10:02:35;;;;;;;;;;;11.60;99.90;;;;;;5047626;28;20024;-71
2022/02/16 10:05:03;;;;;;;;;;;11.60;99.90;;;;;;5028442;28;19947;-71
2022/02/16 10:07:33;;;;;;;;;;;11.70;99.90;;;;;;5045934;28;19931;-71
2022/02/16 10:10:10;;;;;;;;;;;11.70;99.90;;;;;;5028252;28;19925;-71
2022/02/16 10:12:37;;;;;;;;;;;11.70;99.90;;;;;;5046196;28;20011;-74
2022/02/16 10:15:04;;;;;;;;;;;11.80;99.90;;;;;;5022949;28;20398;-74
2022/02/16 10:17:31;;;;;;;;;;;11.80;99.90;;;;;;5041095;28;19931;-74
2022/02/16 10:20:01;;;;;;;;;;;11.80;99.90;;;;;;5028253;28;20380;-74
2022/02/16 10:22:30;;;;;;;;;;;11.80;99.90;;;;;;5029324;28;19936;-71
2022/02/16 10:25:08;;;;;;;;;;;11.80;99.90;;;;;;5033557;28;19936;-72
2022/02/16 10:27:35;;;;;;;;;;;11.80;99.90;;;;;;5033132;28;20368;-73
2022/02/16 10:30:10;;;;;;;;;;;11.80;99.90;;;;;;5032583;28;19937;-73
2022/02/16 10:32:37;;;;;;;;;;;11.90;99.90;;;;;;5039236;28;19925;-72
2022/02/16 10:35:04;;;;;;;;;;;11.90;99.90;;;;;;5036798;28;20307;-72
2022/02/16 10:37:32;;;;;;;;;;;12.00;99.90;;;;;;5034165;28;19932;-71
2022/02/16 10:40:06;;;;;;;;;;;12.00;99.90;;;;;;5030806;28;19937;-71
2022/02/16 10:42:33;;;;;;;;;;;12.10;99.90;;;;;;5037706;28;19931;-72
2022/02/16 10:45:04;;;;;;;;;;;12.10;99.90;;;;;;5026494;28;20400;-72
2022/02/16 10:47:49;;;;;;;;;;;12.20;99.90;;;;;;5031798;28;20774;-71
2022/02/16 10:50:16;;;;;;;;;;;12.20;99.90;;;;;;5032750;28;20289;-72
2022/02/16 10:52:50;;;;;;;;;;;12.30;99.90;;;;;;5047332;28;19924;-72
2022/02/16 10:55:17;;;;;;;;;;;12.30;99.90;;;;;;5044057;28;19952;-72
2022/02/16 10:57:44;;;;;;;;;;;12.30;99.90;;;;;;5037240;28;19972;-72
2022/02/16 11:00:11;;;;;;;;;;;12.30;99.90;;;;;;5040907;28;20023;-73
2022/02/16 11:02:39;;;;;;;;;;;12.30;99.90;;;;;;5045812;28;20291;-74
2022/02/16 11:05:08;;;;;;;;;;;12.30;99.90;;;;;;5037666;28;20467;-74
2022/02/16 11:07:35;;;;;;;;;;;12.20;99.90;;;;;;5029825;28;20008;-74
2022/02/16 11:10:04;;;;;;;;;;;12.20;99.90;;;;;;5040891;28;19925;-76
2022/02/16 11:12:31;;;;;;;;;;;12.20;99.90;;;;;;5037383;28;19969;-73
2022/02/16 11:14:58;;;;;;;;;;;12.20;99.90;;;;;;5031087;28;20372;-74
2022/02/16 11:17:25;;;;;;;;;;;12.20;99.90;;;;;;5045902;28;20470;-76
2022/02/16 11:20:12;;;;;;;;;;;12.20;99.90;;;;;;5037198;28;20395;-74
2022/02/16 11:22:47;;;;;;;;;;;12.30;99.90;;;;;;5027326;28;19971;-73
2022/02/16 11:25:37;;;;;;;;;;;12.40;99.90;;;;;;5030199;28;20392;-76
2022/02/16 11:28:12;;;;;;;;;;;12.40;99.90;;;;;;5022318;28;19941;-73
2022/02/16 11:30:40;;;;;;;;;;;12.50;99.90;;;;;;5024052;28;19933;-72
2022/02/16 11:33:11;;;;;;;;;;;12.50;99.90;;;;;;5031558;28;19964;-73
2022/02/16 11:35:49;;;;;;;;;;;12.50;99.90;;;;;;5026572;28;19932;-74
2022/02/16 11:38:17;;;;;;;;;;;12.50;99.90;;;;;;5020329;28;20462;-75
2022/02/16 11:40:44;;;;;;;;;;;12.60;99.90;;;;;;5025731;28;20278;-75
2022/02/16 11:43:13;;;;;;;;;;;12.70;99.90;;;;;;5033368;28;19925;-74
2022/02/16 11:45:48;;;;;;;;;;;12.70;99.90;;;;;;5023168;28;19925;-74
2022/02/16 11:48:33;;;;;;;;;;;12.90;99.90;;;;;;5024656;28;20347;-73
2022/02/16 11:51:20;;;;;;;;;;;12.90;99.90;;;;;;5023420;28;19996;-74
2022/02/16 11:53:48;;;;;;;;;;;13.20;99.90;;;;;;5025400;28;19937;-73
2022/02/16 11:56:16;;;;;;;;;;;13.40;99.90;;;;;;5031615;28;20180;-74
2022/02/16 11:58:44;;;;;;;;;;;13.50;99.90;;;;;;5029981;28;19938;-74
2022/02/16 12:01:16;;;;;;;;;;;13.50;99.90;;;;;;5030864;28;19925;-74
2022/02/16 12:03:50;;;;;;;;;;;13.50;99.90;;;;;;5026398;28;19929;-75
2022/02/16 12:06:21;;;;;;;;;;;13.40;99.90;;;;;;5021278;28;20023;-74
2022/02/16 12:09:13;;;;;;;;;;;13.40;99.90;;;;;;5026102;28;19983;-77
2022/02/16 12:11:40;;;;;;;;;;;13.30;99.90;;;;;;5026649;28;20352;-73
2022/02/16 12:14:14;;;;;;;;;;;13.20;99.90;;;;;;5022500;28;20455;-75
2022/02/16 12:16:42;;;;;;;;;;;13.10;99.90;;;;;;5027429;28;19925;-74
2022/02/16 12:19:28;;;;;;;;;;;13.10;99.90;;;;;;5028540;28;20336;-75
2022/02/16 12:22:19;;;;;;;;;;;13.10;99.90;;;;;;5032126;28;19931;-74
2022/02/16 12:25:12;;;;;;;;;;;13.20;99.90;;;;;;5028265;28;20020;-72
2022/02/16 12:28:10;;;;;;;;;;;13.30;99.90;;;;;;5029752;28;19933;-73
2022/02/16 12:30:41;;;;;;;;;;;13.30;99.90;;;;;;5020970;28;19944;-73
2022/02/16 12:33:38;;;;;;;;;;;13.10;99.90;;;;;;5025050;28;19929;-72
2022/02/16 12:36:06;;;;;;;;;;;13.10;99.90;;;;;;5023204;28;19932;-72
2022/02/16 12:38:36;;;;;;;;;;;13.00;99.90;;;;;;5024818;28;19925;-73
2022/02/16 12:41:06;;;;;;;;;;;13.10;99.90;;;;;;5027682;28;19929;-72
2022/02/16 12:43:54;;;;;;;;;;;13.10;99.90;;;;;;5023936;28;19952;-73
2022/02/16 12:46:23;;;;;;;;;;;13.10;99.90;;;;;;5027575;28;19972;-72
2022/02/16 12:49:15;;;;;;;;;;;13.10;99.90;;;;;;5031082;28;19935;-74
2022/02/16 12:51:44;;;;;;;;;;;13.00;99.90;;;;;;5023414;28;19932;-72
2022/02/16 12:57:01;;;;;;;;;;;13.00;99.90;;;;;;5020075;28;19935;-72
2022/02/16 13:00:46;;;;;;;;;;;13.10;99.90;;;;;;5031556;28;19994;-72
2022/02/16 13:02:31;;;;;;;;;;;13.10;99.90;;;;;;5035799;28;19925;-72
2022/02/16 13:04:59;;;;;;;;;;;13.10;99.90;;;;;;5027398;28;20315;-73
2022/02/16 13:07:39;;;;;;;;;;;13.20;99.90;;;;;;5036583;28;20030;-71
2022/02/16 13:10:12;;;;;;;;;;;13.20;99.90;;;;;;5033078;28;19925;-72
2022/02/16 13:12:40;;;;;;;;;;;13.10;99.90;;;;;;5027595;28;20016;-71
2022/02/16 13:15:10;;;;;;;;;;;13.10;99.90;;;;;;5045207;28;19925;-72
2022/02/16 13:17:48;;;;;;;;;;;13.20;99.90;;;;;;5038970;28;19933;-72
2022/02/16 13:20:17;;;;;;;;;;;13.20;99.90;;;;;;5035671;28;19929;-72
2022/02/16 13:22:50;;;;;;;;;;;13.20;99.90;;;;;;5032834;28;19933;-73
2022/02/16 13:28:37;;;;;;;;;;;13.30;99.90;;;;;;5022277;28;19928;-72
2022/02/16 13:31:14;;;;;;;;;;;13.30;99.90;;;;;;5021566;28;19934;-72
2022/02/16 13:33:54;;;;;;;;;;;13.40;99.90;;;;;;5024546;28;19932;-74
2022/02/16 13:36:27;;;;;;;;;;;13.50;99.90;;;;;;5029486;28;20024;-72
2022/02/16 13:39:08;;;;;;;;;;;13.60;99.90;;;;;;5021985;28;19964;-72
2022/02/16 13:41:35;;;;;;;;;;;13.70;99.90;;;;;;5027376;28;20406;-72
2022/02/16 13:44:02;;;;;;;;;;;13.70;99.90;;;;;;5032870;28;20406;-73
2022/02/16 13:46:41;;;;;;;;;;;13.70;99.90;;;;;;5034516;28;20032;-73
2022/02/16 13:49:10;;;;;;;;;;;13.70;99.90;;;;;;5037820;28;19925;-72
2022/02/16 13:51:47;;;;;;;;;;;13.70;99.90;;;;;;5031866;28;19935;-72
2022/02/16 13:54:18;;;;;;;;;;;13.70;99.90;;;;;;5025228;28;19939;-72
2022/02/16 13:56:49;;;;;;;;;;;13.80;99.90;;;;;;5022662;28;19929;-72
2022/02/16 13:59:16;;;;;;;;;;;13.90;99.90;;;;;;5029634;28;20015;-72
2022/02/16 14:01:43;;;;;;;;;;;13.90;99.90;;;;;;5024407;28;20426;-73
2022/02/16 14:04:11;;;;;;;;;;;13.90;99.90;;;;;;5033739;28;20011;-73
2022/02/16 14:06:38;;;;;;;;;;;13.90;99.90;;;;;;5044059;28;20453;-72
2022/02/16 14:09:05;;;;;;;;;;;13.90;99.90;;;;;;5034424;28;19925;-73
2022/02/16 14:11:32;;;;;;;;;;;13.90;99.90;;;;;;5026170;28;20019;-72
2022/02/16 14:13:59;;;;;;;;;;;13.90;99.90;;;;;;5033589;28;19929;-71
2022/02/16 14:16:26;;;;;;;;;;;13.80;99.90;;;;;;5035552;28;19971;-71
2022/02/16 14:21:41;;;;;;;;;;;13.80;99.90;;;;;;5038312;28;19941;-71
2022/02/16 14:24:09;;;;;;;;;;;13.70;99.90;;;;;;5042274;28;20308;-75
2022/02/16 14:26:37;;;;;;;;;;;13.60;99.90;;;;;;5042423;28;19939;-74
2022/02/16 14:29:04;;;;;;;;;;;13.60;99.90;;;;;;5039783;28;19925;-74
2022/02/16 14:31:31;;;;;;;;;;;13.70;99.90;;;;;;5037517;28;20287;-74
2022/02/16 14:33:58;;;;;;;;;;;13.60;99.90;;;;;;5045659;28;19925;-74
2022/02/16 14:36:25;;;;;;;;;;;13.60;99.90;;;;;;5040037;28;20411;-73
2022/02/16 14:38:54;;;;;;;;;;;13.60;99.90;;;;;;5031424;28;19926;-72
2022/02/16 14:41:31;;;;;;;;;;;13.60;99.90;;;;;;5041703;28;19940;-73